sensor_id;sensor_type;location;lat;lon;timestamp;temperature;humidity
39881;DHT22;25554;44.954;10.068;2022-12-18T00:02:26;3.90;99.90
39881;DHT22;25554;44.954;10.068;2022-12-18T00:04:52;4.00;99.90
39881;DHT22;25554;44.954;10.068;2022-12-18T00:07:18;4.00;99.90
39881;DHT22;25554;44.954;10.068;2022-12-18T00:09:45;4.10;99.90
39881;DHT22;25554;44.954;10.068;2022-12-18T00:12:11;4.10;99.90
39881;DHT22;25554;44.954;10.068;2022-12-18T00:14:38;4.00;99.90
39881;DHT22;25554;44.954;10.068;2022-12-18T00:17:04;4.10;99.90
39881;DHT22;25554;44.954;10.068;2022-12-18T00:19:30;4.20;99.90
39881;DHT22;25554;44.954;10.068;2022-12-18T00:21:57;4.20;99.90
39881;DHT22;25554;44.954;10.068;2022-12-18T00:24:24;4.20;99.90
39881;DHT22;25554;44.954;10.068;2022-12-18T00:26:50;4.20;99.90
39881;DHT22;25554;44.954;10.068;2022-12-18T00:29:16;4.20;99.90
39881;DHT22;25554;44.954;10.068;2022-12-18T00:31:43;4.20;99.90
39881;DHT22;25554;44.954;10.068;2022-12-18T00:34:11;4.30;99.90
39881;DHT22;25554;44.954;10.068;2022-12-18T00:36:40;4.30;99.90
39881;DHT22;25554;44.954;10.068;2022-12-18T00:39:07;4.30;99.90
39881;DHT22;25554;44.954;10.068;2022-12-18T00:41:33;4.30;99.90
39881;DHT22;25554;44.954;10.068;2022-12-18T00:44:18;4.30;99.90
39881;DHT22;25554;44.954;10.068;2022-12-18T00:46:46;4.20;99.90
39881;DHT22;25554;44.954;10.068;2022-12-18T00:49:14;4.20;99.90
39881;DHT22;25554;44.954;10.068;2022-12-18T00:51:41;4.30;99.90
39881;DHT22;25554;44.954;10.068;2022-12-18T00:54:07;4.30;99.90
39881;DHT22;25554;44.954;10.068;2022-12-18T00:56:36;4.30;99.90
39881;DHT22;25554;44.954;10.068;2022-12-18T00:59:03;4.30;99.90
39881;DHT22;25554;44.954;10.068;2022-12-18T01:01:31;4.30;99.90
39881;DHT22;25554;44.954;10.068;2022-12-18T01:04:00;4.30;99.90
39881;DHT22;25554;44.954;10.068;2022-12-18T01:06:27;4.30;99.90
39881;DHT22;25554;44.954;10.068;2022-12-18T01:08:53;4.30;99.90
39881;DHT22;25554;44.954;10.068;2022-12-18T01:11:21;4.30;99.90
39881;DHT22;25554;44.954;10.068;2022-12-18T01:13:47;4.30;99.90
39881;DHT22;25554;44.954;10.068;2022-12-18T01:16:14;4.30;99.90
39881;DHT22;25554;44.954;10.068;2022-12-18T01:18:41;4.20;99.90
39881;DHT22;25554;44.954;10.068;2022-12-18T01:21:11;4.30;99.90
39881;DHT22;25554;44.954;10.068;2022-12-18T01:23:38;4.30;99.90
39881;DHT22;25554;44.954;10.068;2022-12-18T01:26:10;4.20;99.90
39881;DHT22;25554;44.954;10.068;2022-12-18T01:28:37;4.20;99.90
39881;DHT22;25554;44.954;10.068;2022-12-18T01:31:19;4.30;99.90
39881;DHT22;25554;44.954;10.068;2022-12-18T01:33:46;4.20;99.90
39881;DHT22;25554;44.954;10.068;2022-12-18T01:38:48;4.30;99.90
39881;DHT22;25554;44.954;10.068;2022-12-18T01:41:17;4.30;99.90
39881;DHT22;25554;44.954;10.068;2022-12-18T01:46:12;4.30;99.90
39881;DHT22;25554;44.954;10.068;2022-12-18T01:48:39;4.30;99.90
39881;DHT22;25554;44.954;10.068;2022-12-18T01:51:08;4.30;99.90
39881;DHT22;25554;44.954;10.068;2022-12-18T01:53:36;4.30;99.90
39881;DHT22;25554;44.954;10.068;2022-12-18T01:56:03;4.30;99.90
39881;DHT22;25554;44.954;10.068;2022-12-18T02:01:13;4.40;99.90
39881;DHT22;25554;44.954;10.068;2022-12-18T02:03:41;4.40;99.90
39881;DHT22;25554;44.954;10.068;2022-12-18T02:06:39;4.50;99.90
39881;DHT22;25554;44.954;10.068;2022-12-18T02:09:26;4.60;99.90
39881;DHT22;25554;44.954;10.068;2022-12-18T02:17:24;4.60;99.90
39881;DHT22;25554;44.954;10.068;2022-12-18T02:28:53;4.70;99.90
39881;DHT22;25554;44.954;10.068;2022-12-18T02:31:24;4.80;99.90
39881;DHT22;25554;44.954;10.068;2022-12-18T02:33:58;4.80;99.90
39881;DHT22;25554;44.954;10.068;2022-12-18T02:36:28;4.80;99.90
39881;DHT22;25554;44.954;10.068;2022-12-18T02:38:56;4.80;99.90
39881;DHT22;25554;44.954;10.068;2022-12-18T02:41:25;4.80;99.90
39881;DHT22;25554;44.954;10.068;2022-12-18T02:43:58;4.80;99.90
39881;DHT22;25554;44.954;10.068;2022-12-18T02:46:30;4.80;99.90
39881;DHT22;25554;44.954;10.068;2022-12-18T02:49:17;4.80;99.90
39881;DHT22;25554;44.954;10.068;2022-12-18T02:51:53;4.80;99.90
39881;DHT22;25554;44.954;10.068;2022-12-18T02:57:22;4.70;99.90
39881;DHT22;25554;44.954;10.068;2022-12-18T03:00:30;4.70;99.90
39881;DHT22;25554;44.954;10.068;2022-12-18T03:05:45;4.80;99.90
39881;DHT22;25554;44.954;10.068;2022-12-18T03:08:28;4.80;99.90
39881;DHT22;25554;44.954;10.068;2022-12-18T03:11:10;4.80;99.90
39881;DHT22;25554;44.954;10.068;2022-12-18T03:13:50;4.80;99.90
39881;DHT22;25554;44.954;10.068;2022-12-18T03:16:26;4.80;99.90
39881;DHT22;25554;44.954;10.068;2022-12-18T03:19:07;4.80;99.90
39881;DHT22;25554;44.954;10.068;2022-12-18T03:21:40;4.80;99.90
39881;DHT22;25554;44.954;10.068;2022-12-18T03:24:09;4.80;99.90
39881;DHT22;25554;44.954;10.068;2022-12-18T03:26:41;4.80;99.90
39881;DHT22;25554;44.954;10.068;2022-12-18T03:29:38;4.70;99.90
39881;DHT22;25554;44.954;10.068;2022-12-18T03:32:19;4.70;99.90
39881;DHT22;25554;44.954;10.068;2022-12-18T03:34:50;4.70;99.90
39881;DHT22;25554;44.954;10.068;2022-12-18T03:37:20;4.70;99.90
39881;DHT22;25554;44.954;10.068;2022-12-18T03:39:47;4.80;99.90
39881;DHT22;25554;44.954;10.068;2022-12-18T03:42:19;5.40;99.90
39881;DHT22;25554;44.954;10.068;2022-12-18T03:45:04;4.80;99.90
39881;DHT22;25554;44.954;10.068;2022-12-18T03:50:37;4.70;99.90
39881;DHT22;25554;44.954;10.068;2022-12-18T03:53:36;4.70;99.90
39881;DHT22;25554;44.954;10.068;2022-12-18T03:56:04;4.70;99.90
39881;DHT22;25554;44.954;10.068;2022-12-18T03:58:38;4.70;99.90
39881;DHT22;25554;44.954;10.068;2022-12-18T04:01:26;4.70;99.90
39881;DHT22;25554;44.954;10.068;2022-12-18T04:03:55;4.60;99.90
39881;DHT22;25554;44.954;10.068;2022-12-18T04:06:22;4.60;99.90
39881;DHT22;25554;44.954;10.068;2022-12-18T04:08:50;4.60;99.90
39881;DHT22;25554;44.954;10.068;2022-12-18T04:11:20;4.60;99.90
39881;DHT22;25554;44.954;10.068;2022-12-18T04:13:48;4.60;99.90
39881;DHT22;25554;44.954;10.068;2022-12-18T04:16:19;4.60;99.90
39881;DHT22;25554;44.954;10.068;2022-12-18T04:18:49;4.60;99.90
39881;DHT22;25554;44.954;10.068;2022-12-18T04:21:16;4.60;99.90
39881;DHT22;25554;44.954;10.068;2022-12-18T04:23:42;4.60;99.90
39881;DHT22;25554;44.954;10.068;2022-12-18T04:26:09;5.10;99.90
39881;DHT22;25554;44.954;10.068;2022-12-18T04:28:53;4.70;99.90
39881;DHT22;25554;44.954;10.068;2022-12-18T04:31:21;4.70;99.90
39881;DHT22;25554;44.954;10.068;2022-12-18T04:33:48;4.70;99.90
39881;DHT22;25554;44.954;10.068;2022-12-18T04:36:15;4.60;99.90
39881;DHT22;25554;44.954;10.068;2022-12-18T04:38:41;4.70;99.90
39881;DHT22;25554;44.954;10.068;2022-12-18T04:41:12;4.70;99.90
39881;DHT22;25554;44.954;10.068;2022-12-18T04:43:39;4.70;99.90
39881;DHT22;25554;44.954;10.068;2022-12-18T04:46:07;4.70;99.90
39881;DHT22;25554;44.954;10.068;2022-12-18T04:48:35;4.80;99.90
39881;DHT22;25554;44.954;10.068;2022-12-18T04:51:02;4.70;99.90
39881;DHT22;25554;44.954;10.068;2022-12-18T04:53:29;4.70;99.90
39881;DHT22;25554;44.954;10.068;2022-12-18T04:56:03;4.70;99.90
39881;DHT22;25554;44.954;10.068;2022-12-18T04:58:30;4.70;99.90
39881;DHT22;25554;44.954;10.068;2022-12-18T05:00:56;4.70;99.90
39881;DHT22;25554;44.954;10.068;2022-12-18T05:03:22;4.80;99.90
39881;DHT22;25554;44.954;10.068;2022-12-18T05:05:50;4.70;99.90
39881;DHT22;25554;44.954;10.068;2022-12-18T05:08:17;4.80;99.90
39881;DHT22;25554;44.954;10.068;2022-12-18T05:10:43;4.80;99.90
39881;DHT22;25554;44.954;10.068;2022-12-18T05:13:10;4.80;99.90
39881;DHT22;25554;44.954;10.068;2022-12-18T05:15:36;4.80;99.90
39881;DHT22;25554;44.954;10.068;2022-12-18T05:18:03;4.90;99.90
39881;DHT22;25554;44.954;10.068;2022-12-18T05:20:30;4.90;99.90
39881;DHT22;25554;44.954;10.068;2022-12-18T05:22:57;4.90;99.90
39881;DHT22;25554;44.954;10.068;2022-12-18T05:25:23;4.90;99.90
39881;DHT22;25554;44.954;10.068;2022-12-18T05:27:49;5.00;99.90
39881;DHT22;25554;44.954;10.068;2022-12-18T05:30:16;5.00;99.90
39881;DHT22;25554;44.954;10.068;2022-12-18T05:32:42;4.90;99.90
39881;DHT22;25554;44.954;10.068;2022-12-18T05:35:10;5.00;99.90
39881;DHT22;25554;44.954;10.068;2022-12-18T05:37:36;5.00;99.90
39881;DHT22;25554;44.954;10.068;2022-12-18T05:40:04;5.00;99.90
39881;DHT22;25554;44.954;10.068;2022-12-18T05:42:30;4.90;99.90
39881;DHT22;25554;44.954;10.068;2022-12-18T05:44:57;4.90;99.90
39881;DHT22;25554;44.954;10.068;2022-12-18T05:47:23;4.60;99.90
39881;DHT22;25554;44.954;10.068;2022-12-18T05:49:49;4.90;99.90
39881;DHT22;25554;44.954;10.068;2022-12-18T05:52:15;4.90;99.90
39881;DHT22;25554;44.954;10.068;2022-12-18T05:54:42;4.80;99.90
39881;DHT22;25554;44.954;10.068;2022-12-18T05:57:08;4.80;99.90
39881;DHT22;25554;44.954;10.068;2022-12-18T05:59:34;4.80;99.90
39881;DHT22;25554;44.954;10.068;2022-12-18T06:02:01;4.70;99.90
39881;DHT22;25554;44.954;10.068;2022-12-18T06:04:27;4.70;99.90
39881;DHT22;25554;44.954;10.068;2022-12-18T06:06:56;4.70;99.90
39881;DHT22;25554;44.954;10.068;2022-12-18T06:09:22;4.70;99.90
39881;DHT22;25554;44.954;10.068;2022-12-18T06:11:48;4.70;99.90
39881;DHT22;25554;44.954;10.068;2022-12-18T06:14:17;4.70;99.90
39881;DHT22;25554;44.954;10.068;2022-12-18T06:16:43;4.70;99.90
39881;DHT22;25554;44.954;10.068;2022-12-18T06:19:15;4.70;99.90
39881;DHT22;25554;44.954;10.068;2022-12-18T06:21:41;4.70;99.90
39881;DHT22;25554;44.954;10.068;2022-12-18T06:24:07;4.70;99.90
39881;DHT22;25554;44.954;10.068;2022-12-18T06:26:34;4.70;99.90
39881;DHT22;25554;44.954;10.068;2022-12-18T06:29:02;4.70;99.90
39881;DHT22;25554;44.954;10.068;2022-12-18T06:31:28;4.70;99.90
39881;DHT22;25554;44.954;10.068;2022-12-18T06:33:54;4.70;99.90
39881;DHT22;25554;44.954;10.068;2022-12-18T06:36:21;4.70;99.90
39881;DHT22;25554;44.954;10.068;2022-12-18T06:38:47;4.70;99.90
39881;DHT22;25554;44.954;10.068;2022-12-18T06:41:17;4.70;99.90
39881;DHT22;25554;44.954;10.068;2022-12-18T06:43:43;4.70;99.90
39881;DHT22;25554;44.954;10.068;2022-12-18T06:46:10;4.70;99.90
39881;DHT22;25554;44.954;10.068;2022-12-18T06:48:36;4.70;99.90
39881;DHT22;25554;44.954;10.068;2022-12-18T06:51:03;4.60;99.90
39881;DHT22;25554;44.954;10.068;2022-12-18T06:53:30;4.70;99.90
39881;DHT22;25554;44.954;10.068;2022-12-18T06:56:05;4.60;99.90
39881;DHT22;25554;44.954;10.068;2022-12-18T06:58:33;4.70;99.90
39881;DHT22;25554;44.954;10.068;2022-12-18T07:01:00;4.70;99.90
39881;DHT22;25554;44.954;10.068;2022-12-18T07:03:27;4.70;99.90
39881;DHT22;25554;44.954;10.068;2022-12-18T07:05:53;4.70;99.90
39881;DHT22;25554;44.954;10.068;2022-12-18T07:08:20;4.70;99.90
39881;DHT22;25554;44.954;10.068;2022-12-18T07:10:46;4.00;99.90
39881;DHT22;25554;44.954;10.068;2022-12-18T07:13:16;4.60;99.90
39881;DHT22;25554;44.954;10.068;2022-12-18T07:15:43;4.60;99.90
39881;DHT22;25554;44.954;10.068;2022-12-18T07:18:10;4.70;99.90
39881;DHT22;25554;44.954;10.068;2022-12-18T07:20:36;4.70;99.90
39881;DHT22;25554;44.954;10.068;2022-12-18T07:23:04;4.70;99.90
39881;DHT22;25554;44.954;10.068;2022-12-18T07:25:35;4.70;99.90
39881;DHT22;25554;44.954;10.068;2022-12-18T07:28:02;4.70;99.90
39881;DHT22;25554;44.954;10.068;2022-12-18T07:30:28;4.70;99.90
39881;DHT22;25554;44.954;10.068;2022-12-18T07:32:54;4.70;99.90
39881;DHT22;25554;44.954;10.068;2022-12-18T07:35:20;4.70;99.90
39881;DHT22;25554;44.954;10.068;2022-12-18T07:37:46;4.80;99.90
39881;DHT22;25554;44.954;10.068;2022-12-18T07:40:13;4.70;99.90
39881;DHT22;25554;44.954;10.068;2022-12-18T07:42:39;4.80;99.90
39881;DHT22;25554;44.954;10.068;2022-12-18T07:45:06;4.80;99.90
39881;DHT22;25554;44.954;10.068;2022-12-18T07:47:35;4.80;99.90
39881;DHT22;25554;44.954;10.068;2022-12-18T07:50:03;5.00;99.90
39881;DHT22;25554;44.954;10.068;2022-12-18T07:52:30;4.80;99.90
39881;DHT22;25554;44.954;10.068;2022-12-18T07:54:56;4.90;99.90
39881;DHT22;25554;44.954;10.068;2022-12-18T07:57:22;4.90;99.90
39881;DHT22;25554;44.954;10.068;2022-12-18T07:59:48;4.90;99.90
39881;DHT22;25554;44.954;10.068;2022-12-18T08:02:15;4.90;99.90
39881;DHT22;25554;44.954;10.068;2022-12-18T08:04:41;4.80;99.90
39881;DHT22;25554;44.954;10.068;2022-12-18T08:07:08;4.80;99.90
39881;DHT22;25554;44.954;10.068;2022-12-18T08:09:34;4.80;99.90
39881;DHT22;25554;44.954;10.068;2022-12-18T08:12:00;4.90;99.90
39881;DHT22;25554;44.954;10.068;2022-12-18T08:14:26;4.90;99.90
39881;DHT22;25554;44.954;10.068;2022-12-18T08:16:53;4.80;99.90
39881;DHT22;25554;44.954;10.068;2022-12-18T08:19:19;4.90;99.90
39881;DHT22;25554;44.954;10.068;2022-12-18T08:21:45;4.80;99.90
39881;DHT22;25554;44.954;10.068;2022-12-18T08:24:12;4.80;99.90
39881;DHT22;25554;44.954;10.068;2022-12-18T08:26:38;4.90;99.90
39881;DHT22;25554;44.954;10.068;2022-12-18T08:29:04;4.90;99.90
39881;DHT22;25554;44.954;10.068;2022-12-18T08:31:31;4.90;99.90
39881;DHT22;25554;44.954;10.068;2022-12-18T08:33:57;4.90;99.90
39881;DHT22;25554;44.954;10.068;2022-12-18T08:36:24;4.90;99.90
39881;DHT22;25554;44.954;10.068;2022-12-18T08:38:51;4.90;99.90
39881;DHT22;25554;44.954;10.068;2022-12-18T08:41:18;4.80;99.90
39881;DHT22;25554;44.954;10.068;2022-12-18T08:43:45;4.40;99.90
39881;DHT22;25554;44.954;10.068;2022-12-18T08:46:35;4.90;99.90
39881;DHT22;25554;44.954;10.068;2022-12-18T08:49:03;5.00;99.90
39881;DHT22;25554;44.954;10.068;2022-12-18T08:51:30;4.90;99.90
39881;DHT22;25554;44.954;10.068;2022-12-18T08:53:56;5.00;99.90
39881;DHT22;25554;44.954;10.068;2022-12-18T08:56:22;5.00;99.90
39881;DHT22;25554;44.954;10.068;2022-12-18T08:58:54;5.00;99.90
39881;DHT22;25554;44.954;10.068;2022-12-18T09:01:21;5.00;99.90
39881;DHT22;25554;44.954;10.068;2022-12-18T09:03:49;5.00;99.90
39881;DHT22;25554;44.954;10.068;2022-12-18T09:06:17;5.00;99.90
39881;DHT22;25554;44.954;10.068;2022-12-18T09:08:44;5.00;99.90
39881;DHT22;25554;44.954;10.068;2022-12-18T09:11:26;5.00;99.90
39881;DHT22;25554;44.954;10.068;2022-12-18T09:13:53;5.10;99.90
39881;DHT22;25554;44.954;10.068;2022-12-18T09:16:20;5.10;99.90
39881;DHT22;25554;44.954;10.068;2022-12-18T09:18:47;5.10;99.90
39881;DHT22;25554;44.954;10.068;2022-12-18T09:21:19;5.20;99.90
39881;DHT22;25554;44.954;10.068;2022-12-18T09:23:50;5.20;99.90
39881;DHT22;25554;44.954;10.068;2022-12-18T09:26:17;5.20;99.90
39881;DHT22;25554;44.954;10.068;2022-12-18T09:28:43;5.20;99.90
39881;DHT22;25554;44.954;10.068;2022-12-18T09:31:15;5.20;99.90
39881;DHT22;25554;44.954;10.068;2022-12-18T09:33:41;6.40;99.90
39881;DHT22;25554;44.954;10.068;2022-12-18T09:36:09;5.30;99.90
39881;DHT22;25554;44.954;10.068;2022-12-18T09:38:37;5.30;99.90
39881;DHT22;25554;44.954;10.068;2022-12-18T09:43:51;5.40;99.90
39881;DHT22;25554;44.954;10.068;2022-12-18T09:46:40;5.40;99.90
39881;DHT22;25554;44.954;10.068;2022-12-18T09:49:16;5.40;99.90
39881;DHT22;25554;44.954;10.068;2022-12-18T09:52:00;5.80;99.90
39881;DHT22;25554;44.954;10.068;2022-12-18T09:54:39;5.50;99.90
39881;DHT22;25554;44.954;10.068;2022-12-18T09:57:06;5.50;99.90
39881;DHT22;25554;44.954;10.068;2022-12-18T09:59:38;5.50;99.90
39881;DHT22;25554;44.954;10.068;2022-12-18T10:02:23;5.50;99.90
39881;DHT22;25554;44.954;10.068;2022-12-18T10:05:13;5.50;99.90
39881;DHT22;25554;44.954;10.068;2022-12-18T10:08:13;5.50;99.90
39881;DHT22;25554;44.954;10.068;2022-12-18T10:10:49;5.40;99.90
39881;DHT22;25554;44.954;10.068;2022-12-18T10:18:58;5.50;99.90
39881;DHT22;25554;44.954;10.068;2022-12-18T10:21:39;5.50;99.90
39881;DHT22;25554;44.954;10.068;2022-12-18T10:26:48;5.50;99.90
39881;DHT22;25554;44.954;10.068;2022-12-18T10:29:15;5.50;99.90
39881;DHT22;25554;44.954;10.068;2022-12-18T10:31:42;5.40;99.90
39881;DHT22;25554;44.954;10.068;2022-12-18T10:34:09;5.50;99.90
39881;DHT22;25554;44.954;10.068;2022-12-18T10:36:36;5.50;99.90
39881;DHT22;25554;44.954;10.068;2022-12-18T10:39:23;5.60;99.90
39881;DHT22;25554;44.954;10.068;2022-12-18T10:41:50;5.60;99.90
39881;DHT22;25554;44.954;10.068;2022-12-18T10:46:46;5.60;99.90
39881;DHT22;25554;44.954;10.068;2022-12-18T10:49:24;5.70;99.90
39881;DHT22;25554;44.954;10.068;2022-12-18T10:51:58;5.50;99.90
39881;DHT22;25554;44.954;10.068;2022-12-18T10:54:31;5.60;99.90
39881;DHT22;25554;44.954;10.068;2022-12-18T10:59:54;6.80;99.90
39881;DHT22;25554;44.954;10.068;2022-12-18T11:02:35;6.60;99.90
39881;DHT22;25554;44.954;10.068;2022-12-18T11:05:04;5.90;99.90
39881;DHT22;25554;44.954;10.068;2022-12-18T11:07:50;6.00;99.90
39881;DHT22;25554;44.954;10.068;2022-12-18T11:10:18;5.90;99.90
39881;DHT22;25554;44.954;10.068;2022-12-18T11:12:45;6.00;99.90
39881;DHT22;25554;44.954;10.068;2022-12-18T11:15:22;6.10;99.90
39881;DHT22;25554;44.954;10.068;2022-12-18T11:17:51;6.10;99.90
39881;DHT22;25554;44.954;10.068;2022-12-18T11:20:49;6.10;99.90
39881;DHT22;25554;44.954;10.068;2022-12-18T11:25:51;6.00;99.90
39881;DHT22;25554;44.954;10.068;2022-12-18T11:28:38;4.00;99.90
39881;DHT22;25554;44.954;10.068;2022-12-18T11:31:22;6.20;99.90
39881;DHT22;25554;44.954;10.068;2022-12-18T11:36:44;8.00;99.90
39881;DHT22;25554;44.954;10.068;2022-12-18T11:39:38;7.40;99.90
39881;DHT22;25554;44.954;10.068;2022-12-18T11:42:19;6.10;99.90
39881;DHT22;25554;44.954;10.068;2022-12-18T11:44:48;6.10;99.90
39881;DHT22;25554;44.954;10.068;2022-12-18T11:47:27;5.90;99.90
39881;DHT22;25554;44.954;10.068;2022-12-18T11:50:02;5.90;99.90
39881;DHT22;25554;44.954;10.068;2022-12-18T11:52:37;5.80;99.90
39881;DHT22;25554;44.954;10.068;2022-12-18T12:01:25;5.90;99.90
39881;DHT22;25554;44.954;10.068;2022-12-18T12:03:59;5.90;99.90
39881;DHT22;25554;44.954;10.068;2022-12-18T12:25:41;6.40;99.90
39881;DHT22;25554;44.954;10.068;2022-12-18T12:39:35;6.30;99.90
39881;DHT22;25554;44.954;10.068;2022-12-18T12:42:11;6.30;99.90
39881;DHT22;25554;44.954;10.068;2022-12-18T12:44:58;6.30;99.90
39881;DHT22;25554;44.954;10.068;2022-12-18T12:47:33;6.30;99.90
39881;DHT22;25554;44.954;10.068;2022-12-18T12:50:02;6.10;99.90
39881;DHT22;25554;44.954;10.068;2022-12-18T12:54:56;6.30;99.90
39881;DHT22;25554;44.954;10.068;2022-12-18T12:57:42;6.30;99.90
39881;DHT22;25554;44.954;10.068;2022-12-18T13:00:15;6.40;99.90
39881;DHT22;25554;44.954;10.068;2022-12-18T13:03:08;6.10;99.90
39881;DHT22;25554;44.954;10.068;2022-12-18T13:08:12;6.40;99.90
39881;DHT22;25554;44.954;10.068;2022-12-18T13:13:15;6.20;99.90
39881;DHT22;25554;44.954;10.068;2022-12-18T13:15:44;6.20;99.90
39881;DHT22;25554;44.954;10.068;2022-12-18T13:31:15;6.20;99.90
39881;DHT22;25554;44.954;10.068;2022-12-18T13:34:18;6.30;99.90
39881;DHT22;25554;44.954;10.068;2022-12-18T13:36:45;6.40;99.90
39881;DHT22;25554;44.954;10.068;2022-12-18T13:41:38;6.30;99.90
39881;DHT22;25554;44.954;10.068;2022-12-18T13:46:50;7.20;99.90
39881;DHT22;25554;44.954;10.068;2022-12-18T13:51:49;6.40;99.90
39881;DHT22;25554;44.954;10.068;2022-12-18T13:54:33;6.50;99.90
39881;DHT22;25554;44.954;10.068;2022-12-18T13:57:00;6.40;99.90
39881;DHT22;25554;44.954;10.068;2022-12-18T13:59:35;6.40;99.90
39881;DHT22;25554;44.954;10.068;2022-12-18T14:02:16;7.70;99.90
39881;DHT22;25554;44.954;10.068;2022-12-18T14:04:48;5.70;99.90
39881;DHT22;25554;44.954;10.068;2022-12-18T14:07:22;6.40;99.90
39881;DHT22;25554;44.954;10.068;2022-12-18T14:09:51;6.50;99.90
39881;DHT22;25554;44.954;10.068;2022-12-18T14:12:21;6.50;99.90
39881;DHT22;25554;44.954;10.068;2022-12-18T14:20:43;6.40;99.90
39881;DHT22;25554;44.954;10.068;2022-12-18T14:23:41;9.60;99.90
39881;DHT22;25554;44.954;10.068;2022-12-18T14:26:28;6.20;99.90
39881;DHT22;25554;44.954;10.068;2022-12-18T14:28:55;6.30;99.90
39881;DHT22;25554;44.954;10.068;2022-12-18T14:31:26;6.60;99.90
39881;DHT22;25554;44.954;10.068;2022-12-18T14:33:53;6.20;99.90
39881;DHT22;25554;44.954;10.068;2022-12-18T14:36:22;6.20;99.90
39881;DHT22;25554;44.954;10.068;2022-12-18T14:38:56;4.00;99.90
39881;DHT22;25554;44.954;10.068;2022-12-18T14:41:23;6.30;99.90
39881;DHT22;25554;44.954;10.068;2022-12-18T14:43:52;6.00;99.90
39881;DHT22;25554;44.954;10.068;2022-12-18T14:46:28;6.30;99.90
39881;DHT22;25554;44.954;10.068;2022-12-18T14:48:55;6.30;99.90
39881;DHT22;25554;44.954;10.068;2022-12-18T14:51:24;6.60;99.90
39881;DHT22;25554;44.954;10.068;2022-12-18T14:53:57;6.30;99.90
39881;DHT22;25554;44.954;10.068;2022-12-18T14:56:29;6.30;99.90
39881;DHT22;25554;44.954;10.068;2022-12-18T14:58:57;6.30;99.90
39881;DHT22;25554;44.954;10.068;2022-12-18T15:01:26;6.30;99.90
39881;DHT22;25554;44.954;10.068;2022-12-18T15:03:55;6.30;99.90
39881;DHT22;25554;44.954;10.068;2022-12-18T15:06:34;6.20;99.90
39881;DHT22;25554;44.954;10.068;2022-12-18T15:09:05;6.20;99.90
39881;DHT22;25554;44.954;10.068;2022-12-18T15:11:46;6.20;99.90
39881;DHT22;25554;44.954;10.068;2022-12-18T15:16:56;6.10;99.90
39881;DHT22;25554;44.954;10.068;2022-12-18T15:19:35;6.10;99.90
39881;DHT22;25554;44.954;10.068;2022-12-18T15:24:31;6.10;99.90
39881;DHT22;25554;44.954;10.068;2022-12-18T15:26:59;6.00;99.90
39881;DHT22;25554;44.954;10.068;2022-12-18T15:29:26;6.00;99.90
39881;DHT22;25554;44.954;10.068;2022-12-18T15:34:26;6.20;99.90
39881;DHT22;25554;44.954;10.068;2022-12-18T15:41:46;6.00;99.90
39881;DHT22;25554;44.954;10.068;2022-12-18T15:44:31;5.90;99.90
39881;DHT22;25554;44.954;10.068;2022-12-18T15:46:57;5.80;99.90
39881;DHT22;25554;44.954;10.068;2022-12-18T15:51:56;5.70;99.90
39881;DHT22;25554;44.954;10.068;2022-12-18T15:59:55;5.70;99.90
39881;DHT22;25554;44.954;10.068;2022-12-18T16:02:24;5.70;99.90
39881;DHT22;25554;44.954;10.068;2022-12-18T16:04:52;5.60;99.90
39881;DHT22;25554;44.954;10.068;2022-12-18T16:09:45;5.40;99.90
39881;DHT22;25554;44.954;10.068;2022-12-18T16:12:19;5.70;99.90
39881;DHT22;25554;44.954;10.068;2022-12-18T16:14:46;5.70;99.90
39881;DHT22;25554;44.954;10.068;2022-12-18T16:17:14;5.70;99.90
39881;DHT22;25554;44.954;10.068;2022-12-18T16:22:18;5.70;99.90
39881;DHT22;25554;44.954;10.068;2022-12-18T16:27:11;5.70;99.90
39881;DHT22;25554;44.954;10.068;2022-12-18T16:34:32;5.80;99.90
39881;DHT22;25554;44.954;10.068;2022-12-18T16:37:01;5.80;99.90
39881;DHT22;25554;44.954;10.068;2022-12-18T16:49:16;5.70;99.90
39881;DHT22;25554;44.954;10.068;2022-12-18T16:59:05;5.90;99.90
39881;DHT22;25554;44.954;10.068;2022-12-18T17:04:00;5.90;99.90
39881;DHT22;25554;44.954;10.068;2022-12-18T17:06:29;5.90;99.90
39881;DHT22;25554;44.954;10.068;2022-12-18T17:08:57;5.90;99.90
39881;DHT22;25554;44.954;10.068;2022-12-18T17:11:28;5.90;99.90
39881;DHT22;25554;44.954;10.068;2022-12-18T17:18:48;5.90;99.90
39881;DHT22;25554;44.954;10.068;2022-12-18T17:21:15;5.90;99.90
39881;DHT22;25554;44.954;10.068;2022-12-18T17:23:43;5.90;99.90
39881;DHT22;25554;44.954;10.068;2022-12-18T17:26:11;5.80;99.90
39881;DHT22;25554;44.954;10.068;2022-12-18T17:28:39;6.00;99.90
39881;DHT22;25554;44.954;10.068;2022-12-18T17:31:15;5.90;99.90
39881;DHT22;25554;44.954;10.068;2022-12-18T17:41:04;5.90;99.90
39881;DHT22;25554;44.954;10.068;2022-12-18T17:46:02;5.90;99.90
39881;DHT22;25554;44.954;10.068;2022-12-18T17:48:29;7.10;99.90
39881;DHT22;25554;44.954;10.068;2022-12-18T17:51:03;5.80;99.90
39881;DHT22;25554;44.954;10.068;2022-12-18T17:55:58;5.90;99.90
39881;DHT22;25554;44.954;10.068;2022-12-18T17:58:29;5.90;99.90
39881;DHT22;25554;44.954;10.068;2022-12-18T18:05:53;5.60;99.90
39881;DHT22;25554;44.954;10.068;2022-12-18T18:13:24;5.60;99.90
39881;DHT22;25554;44.954;10.068;2022-12-18T18:16:10;5.70;99.90
39881;DHT22;25554;44.954;10.068;2022-12-18T18:18:38;5.70;99.90
39881;DHT22;25554;44.954;10.068;2022-12-18T18:21:06;5.60;99.90
39881;DHT22;25554;44.954;10.068;2022-12-18T18:23:33;5.70;99.90
39881;DHT22;25554;44.954;10.068;2022-12-18T18:26:04;5.70;99.90
39881;DHT22;25554;44.954;10.068;2022-12-18T18:50:30;5.60;99.90
39881;DHT22;25554;44.954;10.068;2022-12-18T18:52:56;5.60;99.90
39881;DHT22;25554;44.954;10.068;2022-12-18T18:57:49;5.60;99.90
39881;DHT22;25554;44.954;10.068;2022-12-18T19:00:15;5.40;99.90
39881;DHT22;25554;44.954;10.068;2022-12-18T19:17:40;5.60;99.90
39881;DHT22;25554;44.954;10.068;2022-12-18T19:42:06;5.80;99.90
39881;DHT22;25554;44.954;10.068;2022-12-18T19:46:58;5.70;99.90
39881;DHT22;25554;44.954;10.068;2022-12-18T19:51:51;5.80;99.90
39881;DHT22;25554;44.954;10.068;2022-12-18T19:56:44;5.90;99.90
39881;DHT22;25554;44.954;10.068;2022-12-18T20:06:36;5.80;99.90
39881;DHT22;25554;44.954;10.068;2022-12-18T20:14:03;5.60;99.90
39881;DHT22;25554;44.954;10.068;2022-12-18T20:18:56;5.50;99.90
39881;DHT22;25554;44.954;10.068;2022-12-18T20:31:10;5.20;99.90
39881;DHT22;25554;44.954;10.068;2022-12-18T20:33:36;5.20;99.90
39881;DHT22;25554;44.954;10.068;2022-12-18T20:36:04;5.10;99.90
39881;DHT22;25554;44.954;10.068;2022-12-18T20:38:32;4.80;99.90
39881;DHT22;25554;44.954;10.068;2022-12-18T20:43:28;4.60;99.90
39881;DHT22;25554;44.954;10.068;2022-12-18T20:46:02;4.50;99.90
39881;DHT22;25554;44.954;10.068;2022-12-18T20:51:00;1.90;99.90
39881;DHT22;25554;44.954;10.068;2022-12-18T21:10:32;4.60;99.90